Time;durP1;ratioP1;P1;durP2;ratioP2;P2;SDS_P1;SDS_P2;PMS_P1;PMS_P2;Temp;Humidity;BMP_temperature;BMP_pressure;BME280_temperature;BME280_humidity;BME280_pressure;Samples;Min_cycle;Max_cycle;Signal;HPM_P1;HPM_P2
2022/12/14 00:01:24;;;;;;;12.48;11.10;;;;;;;0.25;63.86;100343.41;5013098;28;20476;-72
2022/12/14 00:03:50;;;;;;;14.10;12.40;;;;;;;0.25;63.61;100354.03;5013013;28;20481;-73
2022/12/14 00:06:27;;;;;;;15.32;11.38;;;;;;;0.24;63.73;100346.25;5013273;28;20033;-74
2022/12/14 00:08:55;;;;;;;9.45;8.75;;;;;;;0.25;63.90;100348.72;5013476;28;20117;-72
2022/12/14 00:11:23;;;;;;;14.98;11.73;;;;;;;0.25;63.68;100346.06;5013200;28;20030;-72
2022/12/14 00:13:54;;;;;;;7.75;7.22;;;;;;;0.26;63.75;100346.91;5012722;28;20466;-72
2022/12/14 00:16:20;;;;;;;12.30;10.70;;;;;;;0.25;63.78;100343.41;5013021;28;20477;-72
2022/12/14 00:18:49;;;;;;;13.82;12.00;;;;;;;0.25;63.82;100340.75;5012972;28;20481;-72
2022/12/14 00:21:14;;;;;;;9.70;8.90;;;;;;;0.25;63.41;100331.97;5013199;28;20037;-72
2022/12/14 00:23:42;;;;;;;12.07;10.88;;;;;;;0.24;63.81;100336.47;5012998;28;20370;-72
2022/12/14 00:26:10;;;;;;;11.20;10.20;;;;;;;0.25;63.87;100329.31;5012862;28;20466;-72
2022/12/14 00:28:36;;;;;;;10.23;9.40;;;;;;;0.25;63.26;100324.00;5011682;28;20057;-73
2022/12/14 00:31:02;;;;;;;14.32;12.75;;;;;;;0.24;63.74;100325.00;5012904;28;20081;-73
2022/12/14 00:33:27;;;;;;;9.02;8.23;;;;;;;0.24;63.64;100319.69;5013512;28;20029;-73
2022/12/14 00:35:52;;;;;;;10.85;9.80;;;;;;;0.22;63.43;100312.72;5012854;28;20065;-73
2022/12/14 00:38:18;;;;;;;9.87;9.13;;;;;;;0.23;63.28;100305.59;5028302;28;20088;-73
2022/12/14 00:40:43;;;;;;;19.67;10.70;;;;;;;0.23;63.36;100297.63;5012845;28;20034;-73
2022/12/14 00:43:09;;;;;;;9.55;8.73;;;;;;;0.22;63.57;100295.97;5012791;28;20037;-73
2022/12/14 00:45:34;;;;;;;11.70;10.60;;;;;;;0.23;63.69;100300.28;5011432;28;20030;-73
2022/12/14 00:48:01;;;;;;;10.57;9.73;;;;;;;0.23;63.53;100297.63;5012920;28;20038;-72
2022/12/14 00:50:26;;;;;;;7.47;7.00;;;;;;;0.24;63.39;100287.81;5012682;28;20030;-73
2022/12/14 00:52:52;;;;;;;11.20;10.13;;;;;;;0.23;63.37;100294.97;5013376;28;20381;-73
2022/12/14 00:55:17;;;;;;;10.27;9.48;;;;;;;0.24;63.49;100296.63;5016461;28;20115;-72
2022/12/14 00:57:42;;;;;;;12.20;11.00;;;;;;;0.25;63.64;100298.25;5016679;28;20081;-72
2022/12/14 01:00:08;;;;;;;11.52;10.52;;;;;;;0.24;63.50;100296.63;5015791;28;20030;-73
2022/12/14 01:02:34;;;;;;;9.45;8.73;;;;;;;0.24;63.53;100296.63;5016030;28;20041;-72
2022/12/14 01:04:59;;;;;;;6.95;6.45;;;;;;;0.24;63.41;100290.47;5016005;28;20038;-72
2022/12/14 01:07:24;;;;;;;10.75;9.73;;;;;;;0.24;63.46;100283.31;5016142;28;20036;-73
2022/12/14 01:09:50;;;;;;;12.32;11.18;;;;;;;0.23;63.80;100281.69;5015846;28;20112;-72
2022/12/14 01:12:15;;;;;;;9.95;9.07;;;;;;;0.24;63.79;100277.19;5014947;28;20426;-72
2022/12/14 01:14:40;;;;;;;10.50;9.60;;;;;;;0.23;63.74;100273.72;5015787;28;20049;-72
2022/12/14 01:17:06;;;;;;;11.80;10.63;;;;;;;0.23;63.92;100276.38;5015668;28;20026;-72
2022/12/14 01:19:31;;;;;;;10.85;9.93;;;;;;;0.23;63.79;100271.06;5015367;28;20490;-72
2022/12/14 01:21:57;;;;;;;9.82;9.10;;;;;;;0.23;63.88;100265.75;5015648;28;20050;-72
2022/12/14 01:24:23;;;;;;;10.13;9.32;;;;;;;0.23;63.65;100268.41;5016203;28;20046;-73
2022/12/14 01:26:48;;;;;;;8.93;8.25;;;;;;;0.23;63.79;100271.06;5014872;28;20103;-72
2022/12/14 01:29:15;;;;;;;19.50;13.23;;;;;;;0.22;63.77;100267.56;5015744;28;20113;-73
2022/12/14 01:31:40;;;;;;;9.85;9.05;;;;;;;0.23;63.48;100271.06;5015503;28;20029;-73
2022/12/14 01:34:07;;;;;;;11.48;10.52;;;;;;;0.22;63.71;100272.06;5015293;28;20030;-73
2022/12/14 01:36:33;;;;;;;8.48;7.82;;;;;;;0.23;63.87;100273.72;5014314;28;20063;-72
2022/12/14 01:39:05;;;;;;;10.13;9.27;;;;;;;0.22;63.75;100270.22;5015537;28;20033;-72
2022/12/14 01:41:34;;;;;;;9.88;9.10;;;;;;;0.22;63.82;100275.53;5013831;28;20075;-72
2022/12/14 01:44:22;;;;;;;9.55;8.85;;;;;;;0.22;63.99;100274.72;5015761;28;20026;-72
2022/12/14 01:46:56;;;;;;;9.25;8.70;;;;;;;0.22;63.73;100267.56;5030672;28;20041;-72
2022/12/14 01:49:40;;;;;;;10.75;9.82;;;;;;;0.22;63.98;100272.06;5015637;28;20077;-72
2022/12/14 01:52:27;;;;;;;12.23;11.15;;;;;;;0.22;63.81;100267.56;5015239;28;20113;-72
2022/12/14 01:55:08;;;;;;;10.02;9.23;;;;;;;0.21;63.96;100257.97;5015116;28;20029;-72
2022/12/14 01:57:48;;;;;;;9.55;8.85;;;;;;;0.21;63.90;100259.81;5015669;28;20443;-72
2022/12/14 02:00:15;;;;;;;11.07;10.02;;;;;;;0.21;63.93;100265.94;5015648;28;20065;-72
2022/12/14 02:02:49;;;;;;;10.30;9.45;;;;;;;0.21;63.91;100257.97;5014787;28;20470;-72
2022/12/14 02:05:19;;;;;;;12.10;10.90;;;;;;;0.21;63.69;100255.31;5014028;28;20026;-71
2022/12/14 02:07:47;;;;;;;12.63;11.35;;;;;;;0.20;63.90;100258.97;5014954;28;20484;-72
2022/12/14 02:10:12;;;;;;;13.07;11.80;;;;;;;0.21;63.86;100257.97;5014871;28;20061;-72
2022/12/14 02:12:46;;;;;;;11.80;10.15;;;;;;;0.21;63.92;100252.66;5013525;28;20065;-72
2022/12/14 02:15:13;;;;;;;11.15;9.90;;;;;;;0.20;63.76;100245.72;5030763;28;20390;-72
2022/12/14 02:17:42;;;;;;;9.95;9.27;;;;;;;0.22;63.81;100253.47;5014482;28;20037;-72
2022/12/14 02:20:08;;;;;;;9.02;8.43;;;;;;;0.21;63.72;100250.00;5014427;28;20097;-73
2022/12/14 02:22:56;;;;;;;8.93;8.32;;;;;;;0.21;63.74;100249.19;5029637;28;20061;-71
2022/12/14 02:25:59;;;;;;;11.30;10.27;;;;;;;0.21;63.89;100252.66;5014528;28;20391;-72
2022/12/14 02:29:02;;;;;;;11.45;10.40;;;;;;;0.19;63.65;100246.69;5013491;28;20030;-72
2022/12/14 02:31:50;;;;;;;8.95;8.27;;;;;;;0.19;63.44;100243.22;5015153;28;20055;-72
2022/12/14 02:34:33;;;;;;;13.30;12.07;;;;;;;0.20;63.80;100239.53;5014367;28;20059;-72
2022/12/14 02:37:09;;;;;;;9.77;7.55;;;;;;;0.19;63.52;100240.56;5014719;28;20419;-72
2022/12/14 02:39:53;;;;;;;9.27;8.47;;;;;;;0.20;63.73;100232.44;5014717;28;20454;-73
2022/12/14 02:42:30;;;;;;;13.80;12.40;;;;;;;0.19;63.63;100230.75;5014568;28;20033;-73
2022/12/14 02:45:07;;;;;;;10.65;9.82;;;;;;;0.20;63.65;100231.56;5014197;28;20030;-72
2022/12/14 02:47:53;;;;;;;9.45;8.73;;;;;;;0.19;63.56;100221.97;5013904;28;20448;-73
2022/12/14 02:50:30;;;;;;;15.68;12.88;;;;;;;0.19;63.79;100224.63;5014455;28;20466;-72
2022/12/14 02:53:28;;;;;;;10.90;9.90;;;;;;;0.18;63.57;100228.31;5014447;28;20068;-72
2022/12/14 02:55:59;;;;;;;10.52;9.63;;;;;;;0.19;63.36;100236.06;5012549;28;20454;-72
2022/12/14 02:58:32;;;;;;;12.02;10.90;;;;;;;0.18;63.63;100237.09;5013745;28;20490;-73
2022/12/14 03:00:58;;;;;;;11.05;10.05;;;;;;;0.17;63.58;100235.44;5014018;28;20022;-73
2022/12/14 03:03:23;;;;;;;11.35;10.43;;;;;;;0.18;63.67;100237.09;5013873;28;20037;-72
2022/12/14 03:05:55;;;;;;;15.93;11.25;;;;;;;0.18;63.47;100237.09;5013733;28;20037;-73
2022/12/14 03:08:23;;;;;;;17.48;10.82;;;;;;;0.18;63.52;100238.94;5013726;28;20040;-73
2022/12/14 03:11:00;;;;;;;11.15;10.15;;;;;;;0.19;63.74;100235.25;5013554;28;20429;-73
2022/12/14 03:13:31;;;;;;;14.75;13.20;;;;;;;0.18;63.77;100223.81;5014026;28;20096;-73
2022/12/14 03:16:03;;;;;;;9.50;8.70;;;;;;;0.19;63.75;100224.63;5013603;28;20037;-72
2022/12/14 03:18:35;;;;;;;16.80;12.75;;;;;;;0.19;63.77;100219.31;5014000;28;20056;-73
2022/12/14 03:21:04;;;;;;;8.85;8.23;;;;;;;0.18;63.80;100215.03;5013737;28;20026;-73
2022/12/14 03:23:31;;;;;;;;;;;;;;;0.18;63.47;100207.88;5014259;28;20496;-72
2022/12/14 03:26:20;;;;;;;9.40;8.50;;;;;;;0.17;63.51;100203.56;5013108;28;19913;-72
2022/12/14 03:28:47;;;;;;;13.77;12.57;;;;;;;0.16;63.70;100196.63;5013689;28;20038;-73
2022/12/14 03:31:38;;;;;;;12.65;10.10;;;;;;;0.15;63.61;100192.31;5013757;28;20038;-73
2022/12/14 03:34:09;;;;;;;10.05;9.45;;;;;;;0.17;63.57;100197.44;5013524;28;20117;-73
2022/12/14 03:36:42;;;;;;;9.70;8.83;;;;;;;0.15;63.52;100188.81;5013459;28;20449;-73
2022/12/14 03:39:12;;;;;;;13.63;9.70;;;;;;;0.16;63.64;100190.50;5013754;28;20018;-73
2022/12/14 03:42:10;;;;;;;11.93;10.80;;;;;;;0.15;63.29;100192.31;5012141;28;20025;-72
2022/12/14 03:44:47;;;;;;;9.63;8.93;;;;;;;0.14;63.66;100189.84;5012125;28;20070;-73
2022/12/14 03:47:13;;;;;;;9.13;8.40;;;;;;;0.14;63.20;100195.16;5011786;28;20037;-73
2022/12/14 03:49:59;;;;;;;11.20;9.97;;;;;;;0.15;63.43;100194.13;5013581;28;20022;-73
2022/12/14 03:52:43;;;;;;;10.67;9.77;;;;;;;0.15;63.38;100196.78;5013335;28;20033;-72
2022/12/14 03:55:11;;;;;;;13.13;11.80;;;;;;;0.13;63.44;100178.41;5013444;28;20463;-70
2022/12/14 03:58:20;;;;;;;9.70;9.00;;;;;;;0.13;63.67;100182.91;5014025;28;20076;-71
2022/12/14 04:00:58;;;;;;;9.85;9.02;;;;;;;0.14;63.66;100184.53;5012207;28;20489;-73
2022/12/14 04:03:46;;;;;;;10.67;9.73;;;;;;;0.13;63.62;100182.91;5013270;28;20034;-72
2022/12/14 04:06:36;;;;;;;8.77;8.05;;;;;;;0.13;63.74;100177.59;5013091;28;20026;-70
2022/12/14 04:09:33;;;;;;;9.65;8.95;;;;;;;0.13;63.47;100166.97;5012647;28;20030;-73
2022/12/14 04:18:59;;;;;;;9.18;8.48;;;;;;;0.12;63.45;100147.53;5013529;28;20120;-71
2022/12/14 04:21:09;;;;;;;9.38;8.77;;;;;;;0.13;63.54;100145.72;5009033;28;20042;-72
2022/12/14 04:26:33;;;;;;;10.82;9.85;;;;;;;0.14;63.51;100150.00;5013143;28;20052;-72
2022/12/14 04:31:54;;;;;;;10.13;9.38;;;;;;;0.14;63.51;100144.69;5016806;28;20061;-72
2022/12/14 04:34:23;;;;;;;9.15;8.55;;;;;;;0.15;63.79;100144.53;5015973;28;20026;-72
2022/12/14 04:37:01;;;;;;;11.00;10.02;;;;;;;0.15;63.52;100146.34;5016557;28;20104;-72
2022/12/14 04:39:39;;;;;;;12.23;10.75;;;;;;;0.16;63.77;100143.50;5016333;28;20045;-72
2022/12/14 04:42:07;;;;;;;9.57;8.77;;;;;;;0.16;63.94;100140.03;5016617;28;20030;-72
2022/12/14 04:44:36;;;;;;;11.50;10.57;;;;;;;0.15;63.78;100128.59;5015403;28;20030;-72
2022/12/14 04:47:06;;;;;;;12.32;11.10;;;;;;;0.16;63.88;100135.53;5016084;28;20056;-72
2022/12/14 04:49:40;;;;;;;12.57;11.48;;;;;;;0.16;63.74;100132.06;5016686;28;20046;-72
2022/12/14 04:52:17;;;;;;;11.23;10.43;;;;;;;0.16;63.88;100121.44;5016724;28;20026;-73
2022/12/14 04:54:59;;;;;;;12.48;11.40;;;;;;;0.17;63.46;100123.06;5015253;28;20412;-73
2022/12/14 04:57:40;;;;;;;14.02;10.98;;;;;;;0.17;63.59;100117.75;5016294;28;20026;-73
2022/12/14 05:00:06;;;;;;;9.27;8.57;;;;;;;0.17;63.35;100128.38;5015897;28;20427;-72
2022/12/14 05:02:38;;;;;;;13.83;12.43;;;;;;;0.17;63.72;100123.88;5016382;28;20030;-73
2022/12/14 05:05:24;;;;;;;9.32;8.38;;;;;;;0.17;63.35;100121.22;5016002;28;20037;-72
2022/12/14 05:08:16;;;;;;;19.65;11.50;;;;;;;0.17;63.32;100115.91;5016497;28;20034;-72
2022/12/14 05:11:00;;;;;;;18.05;13.50;;;;;;;0.17;63.48;100110.59;5015115;28;20026;-73
2022/12/14 05:13:47;;;;;;;17.38;10.75;;;;;;;0.17;63.73;100115.09;5016201;28;20057;-72
2022/12/14 05:16:18;;;;;;;11.85;10.85;;;;;;;0.17;63.49;100117.75;5016018;28;20038;-72
2022/12/14 05:18:44;;;;;;;9.70;8.90;;;;;;;0.17;63.67;100120.41;5015655;28;20037;-73
2022/12/14 05:23:54;;;;;;;11.33;10.40;;;;;;;0.17;63.72;100101.81;5015795;28;20113;-72
2022/12/14 05:26:20;;;;;;;11.73;10.70;;;;;;;0.15;63.32;100101.19;5015894;28;20049;-72
2022/12/14 05:28:45;;;;;;;9.80;9.00;;;;;;;0.16;63.59;100106.31;5015195;28;20030;-73
2022/12/14 05:31:10;;;;;;;10.03;9.13;;;;;;;0.16;63.49;100102.84;5014597;28;20041;-72
2022/12/14 05:33:36;;;;;;;16.87;10.30;;;;;;;0.15;63.52;100094.06;5014591;28;20034;-72
2022/12/14 05:36:01;;;;;;;11.30;10.27;;;;;;;0.16;63.41;100094.88;5015610;28;20037;-72
2022/12/14 05:38:26;;;;;;;10.77;9.88;;;;;;;0.16;63.27;100100.19;5015768;28;20041;-73
2022/12/14 05:40:52;;;;;;;9.82;9.02;;;;;;;0.16;63.69;100103.66;5015721;28;20053;-71
2022/12/14 05:43:17;;;;;;;10.13;9.23;;;;;;;0.16;63.52;100108.97;5015622;28;20045;-73
2022/12/14 05:45:42;;;;;;;11.30;10.33;;;;;;;0.17;63.40;100109.78;5015463;28;20034;-73
2022/12/14 05:48:08;;;;;;;10.57;9.83;;;;;;;0.16;63.69;100108.16;5014913;28;20030;-71
2022/12/14 05:50:34;;;;;;;10.13;9.27;;;;;;;0.17;63.80;100105.28;5014970;28;20030;-71
2022/12/14 05:52:59;;;;;;;10.52;9.82;;;;;;;0.17;63.69;100101.81;5013876;28;20033;-71
2022/12/14 05:55:24;;;;;;;11.23;10.30;;;;;;;0.17;63.81;100099.16;5015234;28;20069;-71
2022/12/14 05:57:50;;;;;;;8.90;8.25;;;;;;;0.18;63.34;100100.81;5015319;28;20029;-72
2022/12/14 06:00:15;;;;;;;8.27;7.67;;;;;;;0.18;63.43;100100.81;5013960;28;20517;-72
2022/12/14 06:02:40;;;;;;;16.53;13.60;;;;;;;0.18;63.43;100100.81;5014892;28;20030;-72
2022/12/14 06:05:06;;;;;;;12.00;10.95;;;;;;;0.17;63.49;100092.00;5029960;28;20033;-71
2022/12/14 06:07:31;;;;;;;12.20;9.70;;;;;;;0.18;63.45;100092.84;5014843;28;20034;-72
2022/12/14 06:09:57;;;;;;;12.27;10.23;;;;;;;0.17;63.43;100089.34;5014832;28;20108;-72
2022/12/14 06:12:22;;;;;;;11.55;10.65;;;;;;;0.17;63.43;100083.22;5014931;28;20033;-71
2022/12/14 06:14:47;;;;;;;11.30;10.37;;;;;;;0.18;63.33;100084.88;5014421;28;20425;-72
2022/12/14 06:17:13;;;;;;;10.80;9.87;;;;;;;0.17;63.50;100084.03;5014784;28;20109;-73
2022/12/14 06:19:38;;;;;;;14.77;13.07;;;;;;;0.18;63.51;100090.19;5015009;28;20065;-73
2022/12/14 06:22:04;;;;;;;20.63;10.73;;;;;;;0.17;63.46;100083.22;5014894;28;20108;-72
2022/12/14 06:24:29;;;;;;;11.23;10.32;;;;;;;0.17;63.70;100086.69;5013426;28;20053;-73
2022/12/14 06:26:54;;;;;;;9.40;8.80;;;;;;;0.18;63.75;100087.53;5014261;28;20037;-72
2022/12/14 06:29:20;;;;;;;9.15;8.43;;;;;;;0.18;63.42;100090.19;5014653;28;20394;-73
2022/12/14 06:31:46;;;;;;;10.38;9.38;;;;;;;0.18;63.81;100098.97;4996727;28;20125;-73
2022/12/14 06:34:12;;;;;;;11.53;10.43;;;;;;;0.19;63.65;100097.16;5014870;28;20381;-72
2022/12/14 06:36:40;;;;;;;11.37;10.10;;;;;;;0.19;63.41;100094.50;5013505;28;20048;-73
2022/12/14 06:39:14;;;;;;;8.35;7.72;;;;;;;0.19;63.75;100099.81;5013447;28;20022;-73
2022/12/14 06:41:40;;;;;;;13.43;12.10;;;;;;;0.19;63.74;100107.78;5014129;28;20022;-73
2022/12/14 06:44:09;;;;;;;10.45;9.65;;;;;;;0.18;63.57;100096.31;5012756;28;20327;-72
2022/12/14 06:46:35;;;;;;;9.38;8.48;;;;;;;0.19;63.70;100105.13;5029546;28;20474;-72
2022/12/14 06:49:01;;;;;;;10.70;10.03;;;;;;;0.19;63.54;100097.16;5014387;28;20059;-72
2022/12/14 06:51:27;;;;;;;10.57;9.88;;;;;;;0.18;63.47;100101.66;5013871;28;20466;-73
2022/12/14 06:53:54;;;;;;;11.70;10.70;;;;;;;0.18;63.54;100101.66;5029316;28;20033;-71
2022/12/14 06:56:22;;;;;;;10.77;9.97;;;;;;;0.18;63.52;100109.59;5014240;28;20030;-71
2022/12/14 06:58:48;;;;;;;12.85;11.68;;;;;;;0.18;63.47;100109.59;5014165;28;20041;-73
2022/12/14 07:01:16;;;;;;;12.07;10.90;;;;;;;0.18;63.61;100108.78;5014327;28;20033;-71
2022/12/14 07:03:45;;;;;;;12.65;11.32;;;;;;;0.19;63.66;100105.13;5013951;28;20025;-71
2022/12/14 07:06:11;;;;;;;15.35;9.10;;;;;;;0.19;63.43;100094.50;5014017;28;20030;-73
2022/12/14 07:08:37;;;;;;;12.13;11.10;;;;;;;0.19;63.88;100103.28;5013635;28;20033;-72
2022/12/14 07:11:05;;;;;;;9.23;8.55;;;;;;;0.18;63.65;100101.66;5014027;28;20030;-72
2022/12/14 07:13:30;;;;;;;11.77;10.67;;;;;;;0.19;63.75;100108.59;5013718;28;20029;-72
2022/12/14 07:15:57;;;;;;;8.88;8.13;;;;;;;0.19;63.68;100107.78;5013955;28;20272;-72
2022/12/14 07:18:23;;;;;;;12.48;10.00;;;;;;;0.18;63.42;100101.66;5012461;28;20152;-73
2022/12/14 07:21:00;;;;;;;19.80;14.57;;;;;;;0.19;63.77;100110.44;5012645;28;20033;-72
2022/12/14 07:23:28;;;;;;;11.13;10.20;;;;;;;0.19;63.57;100107.78;5013109;28;20050;-72
2022/12/14 07:25:53;;;;;;;10.00;9.10;;;;;;;0.18;63.46;100098.97;5012425;28;20022;-72
2022/12/14 07:28:19;;;;;;;10.40;9.63;;;;;;;0.19;63.69;100102.47;5028874;28;20040;-72
2022/12/14 07:30:45;;;;;;;10.87;9.93;;;;;;;0.19;63.60;100100.63;5012131;28;20026;-72
2022/12/14 07:33:10;;;;;;;10.68;9.77;;;;;;;0.19;63.75;100099.81;5012502;28;20030;-73
2022/12/14 07:35:36;;;;;;;11.53;10.40;;;;;;;0.19;63.68;100097.16;5013021;28;20072;-72
2022/12/14 07:38:01;;;;;;;10.38;9.35;;;;;;;0.19;63.69;100116.56;5012202;28;20030;-72
2022/12/14 07:40:27;;;;;;;11.07;10.23;;;;;;;0.18;63.52;100108.78;5011850;28;20030;-72
2022/12/14 07:42:52;;;;;;;12.37;11.27;;;;;;;0.19;63.59;100118.41;5013323;28;20088;-72
2022/12/14 07:45:17;;;;;;;11.63;10.63;;;;;;;0.19;63.66;100118.41;5011606;28;20065;-72
2022/12/14 07:47:43;;;;;;;12.13;10.98;;;;;;;0.18;63.50;100117.56;5013224;28;20045;-72
2022/12/14 07:50:09;;;;;;;10.70;9.90;;;;;;;0.19;63.52;100115.75;5013161;28;20104;-72
2022/12/14 07:52:34;;;;;;;9.93;9.23;;;;;;;0.19;63.50;100118.41;5013222;28;20113;-72
2022/12/14 07:55:00;;;;;;;11.93;10.30;;;;;;;0.18;63.31;100119.41;5012266;28;20133;-73
2022/12/14 07:57:25;;;;;;;11.38;10.25;;;;;;;0.18;63.59;100117.56;5013178;28;20030;-72
2022/12/14 07:59:50;;;;;;;13.10;11.73;;;;;;;0.18;63.45;100119.41;5013083;28;20041;-72
2022/12/14 08:02:16;;;;;;;10.18;9.32;;;;;;;0.17;63.60;100123.88;5012147;28;20030;-72
2022/12/14 08:04:41;;;;;;;12.30;10.98;;;;;;;0.18;63.53;100130.03;5016052;28;20038;-73
2022/12/14 08:07:07;;;;;;;13.73;12.40;;;;;;;0.17;63.60;100131.84;5016981;28;20034;-74
2022/12/14 08:09:32;;;;;;;10.80;9.90;;;;;;;0.16;63.59;100126.75;5016934;28;20037;-73
2022/12/14 08:11:57;;;;;;;14.18;12.15;;;;;;;0.17;63.66;100131.03;5032617;28;20030;-73
2022/12/14 08:14:23;;;;;;;11.32;10.32;;;;;;;0.16;63.50;100130.22;5016798;28;20390;-73
2022/12/14 08:16:49;;;;;;;10.63;9.73;;;;;;;0.17;63.26;100141.66;5016407;28;20044;-73
2022/12/14 08:19:16;;;;;;;9.98;8.95;;;;;;;0.15;63.72;100139.22;5016549;28;20061;-73
2022/12/14 08:21:41;;;;;;;11.68;10.73;;;;;;;0.16;63.53;100134.72;5016569;28;20030;-73
2022/12/14 08:24:10;;;;;;;11.18;10.27;;;;;;;0.15;63.59;100133.91;5014869;28;20061;-72
2022/12/14 08:26:35;;;;;;;10.45;9.75;;;;;;;0.16;63.68;100137.38;5016079;28;20141;-72
2022/12/14 08:29:02;;;;;;;12.18;11.18;;;;;;;0.15;63.45;100141.88;4999257;28;20085;-73
2022/12/14 08:31:27;;;;;;;12.40;10.77;;;;;;;0.15;63.52;100141.03;5016708;28;20041;-73
2022/12/14 08:33:53;;;;;;;13.15;11.85;;;;;;;0.16;63.37;100142.69;5016489;28;20046;-73
2022/12/14 08:36:25;;;;;;;9.82;9.10;;;;;;;0.15;63.35;100144.53;5016952;28;20042;-73
2022/12/14 08:38:59;;;;;;;11.93;10.85;;;;;;;0.15;63.49;100149.84;5016432;28;20026;-73
2022/12/14 08:41:25;;;;;;;11.85;10.77;;;;;;;0.14;63.01;100145.50;5015532;28;20559;-73
2022/12/14 08:43:53;;;;;;;11.63;10.48;;;;;;;0.14;63.50;100137.53;5016378;28;20080;-73
2022/12/14 08:46:19;;;;;;;11.80;10.75;;;;;;;0.14;63.33;100139.38;5014852;28;20498;-73
2022/12/14 08:48:45;;;;;;;11.65;10.57;;;;;;;0.14;63.03;100134.06;5015907;28;20025;-73
2022/12/14 08:51:10;;;;;;;13.60;12.23;;;;;;;0.13;63.24;100141.22;5015832;28;20390;-73
2022/12/14 08:53:37;;;;;;;10.10;9.18;;;;;;;0.13;63.26;100141.22;5014761;28;20030;-71
2022/12/14 08:56:10;;;;;;;16.52;12.10;;;;;;;0.14;63.04;100139.38;5015513;28;20415;-72
2022/12/14 08:58:37;;;;;;;11.00;10.13;;;;;;;0.13;63.22;100143.06;5015942;28;20045;-74
2022/12/14 09:01:04;;;;;;;14.00;12.65;;;;;;;0.12;63.48;100138.75;5015785;28;20034;-71
2022/12/14 09:03:30;;;;;;;9.40;8.80;;;;;;;0.12;63.06;100146.72;5015526;28;20398;-72
2022/12/14 09:05:55;;;;;;;13.32;12.00;;;;;;;0.11;63.43;100145.09;5015309;28;20026;-73
2022/12/14 09:08:21;;;;;;;13.18;11.85;;;;;;;0.10;63.34;100149.56;5015653;28;20037;-72
2022/12/14 09:10:50;;;;;;;9.43;8.52;;;;;;;0.11;63.43;100153.88;5015568;28;20038;-72
2022/12/14 09:13:16;;;;;;;13.10;11.90;;;;;;;0.11;63.26;100155.72;5015719;28;20436;-73
2022/12/14 09:15:41;;;;;;;9.70;8.90;;;;;;;0.10;62.98;100152.22;5013838;28;20489;-73
2022/12/14 09:18:07;;;;;;;17.43;12.03;;;;;;;0.10;63.02;100156.69;5014556;28;20053;-74
2022/12/14 09:20:32;;;;;;;11.63;10.52;;;;;;;0.10;62.97;100164.66;5015675;28;20033;-72
2022/12/14 09:22:58;;;;;;;15.52;13.13;;;;;;;0.09;63.00;100158.53;5014937;28;20092;-72
2022/12/14 09:25:23;;;;;;;10.48;9.40;;;;;;;0.08;62.97;100162.22;5013928;28;20087;-72
2022/12/14 09:27:49;;;;;;;8.68;8.10;;;;;;;0.08;63.01;100164.06;5014461;28;20030;-72
2022/12/14 09:30:15;;;;;;;15.98;14.35;;;;;;;0.07;63.34;100165.06;5014138;28;20034;-74
2022/12/14 09:32:42;;;;;;;11.38;10.27;;;;;;;0.07;62.99;100167.69;5012772;28;20029;-73
2022/12/14 09:35:08;;;;;;;15.63;13.45;;;;;;;0.07;63.52;100160.56;5013931;28;20138;-73
2022/12/14 09:37:33;;;;;;;11.00;10.17;;;;;;;0.06;63.29;100164.22;5013822;28;20513;-73
2022/12/14 09:39:58;;;;;;;12.97;11.63;;;;;;;0.07;63.29;100165.06;5014037;28;20152;-73
2022/12/14 09:43:02;;;;;;;12.27;11.03;;;;;;;0.06;63.07;100163.41;4996885;28;20056;-74
2022/12/14 09:45:32;;;;;;;11.90;10.83;;;;;;;0.05;62.88;100172.38;5014159;28;20076;-74
2022/12/14 09:48:19;;;;;;;12.60;11.32;;;;;;;0.04;63.08;100173.41;5014190;28;20037;-74
2022/12/14 09:50:49;;;;;;;10.38;9.52;;;;;;;0.03;62.93;100169.94;5013699;28;20588;-75
2022/12/14 09:53:17;;;;;;;16.67;12.43;;;;;;;0.03;62.87;100171.75;5013881;28;20398;-76
2022/12/14 09:55:49;;;;;;;12.83;11.77;;;;;;;0.02;63.17;100170.09;5013943;28;20022;-74
2022/12/14 09:58:19;;;;;;;10.20;9.43;;;;;;;0.02;63.29;100173.56;5013802;28;20030;-73
2022/12/14 10:01:04;;;;;;;9.30;8.60;;;;;;;0.02;63.22;100162.13;5013764;28;20034;-72
2022/12/14 10:03:38;;;;;;;13.35;12.00;;;;;;;0.02;62.91;100157.63;5013411;28;20057;-73
2022/12/14 10:06:28;;;;;;;13.30;10.90;;;;;;;0.01;63.25;100171.13;5013660;28;20037;-74
2022/12/14 10:09:08;;;;;;;13.13;11.93;;;;;;;0.02;63.30;100164.78;5013475;28;20510;-72
2022/12/14 10:11:46;;;;;;;13.25;11.70;;;;;;;0.00;62.86;100165.00;5013883;28;20512;-73
2022/12/14 10:14:21;;;;;;;12.27;11.17;;;;;;;0.01;63.09;100169.28;5028998;28;20455;-73
2022/12/14 10:17:01;;;;;;;10.50;9.60;;;;;;;0.02;63.08;100170.91;5013791;28;20496;-74
2022/12/14 10:19:29;;;;;;;12.20;11.10;;;;;;;0.03;63.06;100166.44;5013482;28;20025;-74
2022/12/14 10:22:17;;;;;;;13.73;11.57;;;;;;;0.02;62.97;100170.91;5029069;28;20029;-74
2022/12/14 10:25:13;;;;;;;17.30;12.67;;;;;;;0.02;63.02;100164.78;5058744;28;20759;-74
2022/12/14 10:27:43;;;;;;;11.23;10.35;;;;;;;0.02;62.62;100165.59;5062559;28;20029;-73
2022/12/14 10:30:16;;;;;;;13.95;12.65;;;;;;;0.03;62.69;100171.75;5057071;28;20116;-73
2022/12/14 10:32:54;;;;;;;11.50;10.43;;;;;;;0.02;62.76;100172.75;5062741;28;20041;-73
2022/12/14 10:35:27;;;;;;;12.63;11.50;;;;;;;0.01;62.81;100173.78;5061171;28;20194;-71
2022/12/14 10:38:11;;;;;;;10.57;9.68;;;;;;;-0.01;62.86;100177.44;5061284;28;20495;-73
2022/12/14 10:40:46;;;;;;;13.10;11.65;;;;;;;-0.02;63.24;100175.78;5059638;28;20025;-73
2022/12/14 10:43:37;;;;;;;13.57;12.20;;;;;;;-0.03;62.86;100178.63;5063370;28;20040;-74
2022/12/14 10:46:37;;;;;;;13.97;12.07;;;;;;;-0.04;62.76;100182.31;5056095;28;20501;-73
2022/12/14 10:49:12;;;;;;;10.17;9.27;;;;;;;-0.05;62.88;100177.97;5059556;28;20033;-73
2022/12/14 10:51:45;;;;;;;16.20;12.30;;;;;;;-0.06;62.75;100181.66;5062640;28;20135;-73
2022/12/14 10:54:34;;;;;;;13.07;11.90;;;;;;;-0.06;63.07;100181.66;5064052;28;20039;-74
2022/12/14 10:56:59;;;;;;;14.77;11.00;;;;;;;-0.06;62.84;100179.00;5059535;28;20151;-73
2022/12/14 10:59:28;;;;;;;11.13;10.03;;;;;;;-0.09;63.00;100172.25;5061884;28;20144;-73
2022/12/14 11:02:00;;;;;;;14.02;12.63;;;;;;;-0.09;62.86;100166.94;5062966;28;20580;-73
2022/12/14 11:04:46;;;;;;;14.07;12.77;;;;;;;-0.10;62.76;100164.44;5062959;28;20044;-73
2022/12/14 11:07:14;;;;;;;11.00;9.70;;;;;;;-0.11;62.95;100160.16;5060462;28;20058;-73
2022/12/14 11:09:40;;;;;;;13.40;12.10;;;;;;;-0.11;62.69;100171.59;5062599;28;20040;-74
2022/12/14 11:12:16;;;;;;;11.67;10.57;;;;;;;-0.10;62.70;100170.59;5058788;28;20032;-73
2022/12/14 11:14:53;;;;;;;13.33;12.03;;;;;;;-0.11;63.02;100168.94;5058922;28;20518;-74
2022/12/14 11:17:41;;;;;;;11.03;10.00;;;;;;;-0.11;62.96;100163.63;5059832;28;20485;-73
2022/12/14 11:20:29;;;;;;;14.23;12.83;;;;;;;-0.11;63.21;100165.47;5063376;28;20053;-73
2022/12/14 11:23:19;;;;;;;10.88;10.07;;;;;;;-0.11;62.87;100168.94;5058797;28;20384;-75
2022/12/14 11:25:49;;;;;;;13.17;11.87;;;;;;;-0.12;62.69;100177.94;5061160;28;20029;-71
2022/12/14 11:28:38;;;;;;;11.97;10.40;;;;;;;-0.11;62.84;100173.44;5061522;28;20041;-75
2022/12/14 11:31:05;;;;;;;18.83;15.60;;;;;;;-0.11;63.05;100171.59;5059600;28;20029;-74
2022/12/14 11:33:50;;;;;;;9.63;8.93;;;;;;;-0.11;63.10;100176.91;5060043;28;20504;-74
2022/12/14 11:36:22;;;;;;;17.17;12.33;;;;;;;-0.11;62.87;100170.78;5047871;28;20025;-74
2022/12/14 11:38:58;;;;;;;12.73;11.53;;;;;;;-0.11;62.99;100170.78;5046401;28;20028;-73
2022/12/14 11:41:27;;;;;;;19.27;11.47;;;;;;;-0.12;62.84;100169.97;5046539;28;20064;-75
2022/12/14 11:44:19;;;;;;;11.50;10.53;;;;;;;-0.12;62.53;100167.31;5045837;28;20033;-75
2022/12/14 11:46:56;;;;;;;13.70;12.03;;;;;;;-0.12;62.91;100166.50;5047982;28;20457;-74
2022/12/14 11:49:31;;;;;;;15.20;11.67;;;;;;;-0.12;62.88;100163.84;5047782;28;20373;-74
2022/12/14 11:52:05;;;;;;;8.13;7.43;;;;;;;-0.12;62.67;100162.00;5048473;28;20175;-76
2022/12/14 11:54:36;;;;;;;13.30;11.93;;;;;;;-0.11;63.06;100163.63;5041556;28;20312;-73
2022/12/14 11:57:06;;;;;;;8.33;7.77;;;;;;;-0.10;62.74;100173.25;5046389;28;20021;-73